Terminal Aerodrome Forecast
Issued by NWS Twin Cities, MN

Home | Current Version | Previous Version | Graphics & Text | Print | Product List | Glossary On
Versions: 1 2 3 4 5 6 7 8 9 10 11 12 13 14 15 16 17 18
000
FTUS43 KMPX 212340
TAFSTC
TAF
KSTC 212340Z 2200/2224 19004KT P6SM SCT250
     FM221700 12007KT P6SM OVC070
     FM221900 12008KT P6SM OVC030
     FM222000 12007KT 2SM -SN BR OVC020
     FM222200 10007KT 3/4SM -SN BR VV007=

USA.gov is the U.S. government's official web portal to all federal, state and local government web resources and services.